Terminal Aerodrome Forecast
Issued by NWS Omaha/Valley, NE

Home | Current Version | Previous Version | Graphics & Text | Print | Product List | Glossary On
Versions: 1 2 3 4 5 6 7 8 9 10 11 12 13 14 15 16 17 18 19 20 21 22 23 24 25 26 27 28 29 30 31 32 33 34
000
FTUS43 KOAX 252338
TAFOFK
TAF
KOFK 252338Z 2600/2624 01011KT P6SM OVC035
     FM260300 36013KT 6SM BR OVC015
      TEMPO 2606/2610 5SM -FZDZ OVC007
     FM261000 35014G20KT 4SM BR OVC008 PROB30 2620/2624 3SM -SN BR
      OVC007=

USA.gov is the U.S. government's official web portal to all federal, state and local government web resources and services.